Time;durP1;ratioP1;P1;durP2;ratioP2;P2;SDS_P1;SDS_P2;PMS_P1;PMS_P2;Temp;Humidity;BMP_temperature;BMP_pressure;BME280_temperature;BME280_humidity;BME280_pressure;Samples;Min_cycle;Max_cycle;Signal;HPM_P1;HPM_P2
2022/06/08 00:02:21;;;;;;;;;;;10.40;99.90;;;;;;5028428;28;19933;-80
2022/06/08 00:04:46;;;;;;;;;;;10.30;99.90;;;;;;5028839;28;19940;-80
2022/06/08 00:07:12;;;;;;;;;;;10.30;99.90;;;;;;5049255;28;19925;-80
2022/06/08 00:09:38;;;;;;;;;;;10.30;99.90;;;;;;5034933;28;19934;-80
2022/06/08 00:12:04;;;;;;;;;;;10.30;99.90;;;;;;5068113;28;19979;-80
2022/06/08 00:14:29;;;;;;;;;;;10.30;99.90;;;;;;5048152;28;19929;-80
2022/06/08 00:16:55;;;;;;;;;;;10.30;99.90;;;;;;5024991;28;20395;-80
2022/06/08 00:19:20;;;;;;;;;;;10.30;99.90;;;;;;5067777;28;19933;-80
2022/06/08 00:21:46;;;;;;;;;;;10.30;99.90;;;;;;5025798;28;19933;-80
2022/06/08 00:24:12;;;;;;;;;;;10.40;99.90;;;;;;5018088;28;20036;-80
2022/06/08 00:26:37;;;;;;;;;;;10.50;99.90;;;;;;5034882;28;20284;-80
2022/06/08 00:29:06;;;;;;;;;;;10.50;99.90;;;;;;5033242;28;19925;-80
2022/06/08 00:31:32;;;;;;;;;;;10.50;99.90;;;;;;5033596;28;19929;-80
2022/06/08 00:33:57;;;;;;;;;;;10.60;99.90;;;;;;5067477;28;19983;-80
2022/06/08 00:36:23;;;;;;;;;;;10.60;99.90;;;;;;5016864;28;19925;-79
2022/06/08 00:38:49;;;;;;;;;;;10.60;99.90;;;;;;5021217;28;20373;-80
2022/06/08 00:41:27;;;;;;;;;;;10.60;99.90;;;;;;5071383;28;19925;-80
2022/06/08 00:43:53;;;;;;;;;;;10.60;99.90;;;;;;5036334;28;19925;-80
2022/06/08 00:46:19;;;;;;;;;;;10.60;99.90;;;;;;5043628;28;20333;-80
2022/06/08 00:48:47;;;;;;;;;;;10.70;99.90;;;;;;5079998;28;20015;-80
2022/06/08 00:51:13;;;;;;;;;;;10.70;99.90;;;;;;5026322;28;19925;-80
2022/06/08 00:54:05;;;;;;;;;;;10.60;99.90;;;;;;5042387;28;19986;-80
2022/06/08 00:56:38;;;;;;;;;;;10.60;99.90;;;;;;5049652;28;19932;-80
2022/06/08 00:59:05;;;;;;;;;;;10.60;99.90;;;;;;5042336;28;19925;-80
2022/06/08 01:01:31;;;;;;;;;;;10.60;99.90;;;;;;5042412;28;19929;-80
2022/06/08 01:04:14;;;;;;;;;;;10.50;99.90;;;;;;5066669;28;19929;-80
2022/06/08 01:06:43;;;;;;;;;;;10.50;99.90;;;;;;5052858;28;19943;-80
2022/06/08 01:09:14;;;;;;;;;;;10.40;99.90;;;;;;5045200;28;19936;-80
2022/06/08 01:11:44;;;;;;;;;;;10.40;99.90;;;;;;5084315;28;20023;-80
2022/06/08 01:14:11;;;;;;;;;;;10.40;99.90;;;;;;5050980;28;19947;-80
2022/06/08 01:16:40;;;;;;;;;;;10.30;99.90;;;;;;5048141;28;19931;-80
2022/06/08 01:19:06;;;;;;;;;;;10.40;99.90;;;;;;5066571;28;19976;-80
2022/06/08 01:21:31;;;;;;;;;;;10.30;99.90;;;;;;5085703;28;20040;-79
2022/06/08 01:24:00;;;;;;;;;;;10.30;99.90;;;;;;5085392;28;20012;-80
2022/06/08 01:26:39;;;;;;;;;;;10.30;99.90;;;;;;5049844;28;20365;-80
2022/06/08 01:29:18;;;;;;;;;;;10.30;99.90;;;;;;5047802;28;19964;-80
2022/06/08 01:32:06;;;;;;;;;;;10.30;99.90;;;;;;5052674;28;19925;-80
2022/06/08 01:34:36;;;;;;;;;;;10.20;99.90;;;;;;5032800;28;19979;-80
2022/06/08 01:37:08;;;;;;;;;;;10.30;99.90;;;;;;5066352;28;20040;-80
2022/06/08 01:39:46;;;;;;;;;;;10.30;99.90;;;;;;5048880;28;19925;-80
2022/06/08 01:42:18;;;;;;;;;;;10.40;99.90;;;;;;5035978;28;19925;-80
2022/06/08 01:47:56;;;;;;;;;;;10.50;99.90;;;;;;5066074;28;20166;-80
2022/06/08 01:50:28;;;;;;;;;;;10.50;99.90;;;;;;5031776;28;19925;-80
2022/06/08 01:53:19;;;;;;;;;;;10.40;99.90;;;;;;5035394;28;20293;-80
2022/06/08 01:56:08;;;;;;;;;;;10.50;99.90;;;;;;5032058;28;19925;-80
2022/06/08 01:58:36;;;;;;;;;;;10.50;99.90;;;;;;5030234;28;20329;-80
2022/06/08 02:01:05;;;;;;;;;;;10.60;99.90;;;;;;5085005;28;20009;-80
2022/06/08 02:03:34;;;;;;;;;;;10.60;99.90;;;;;;5017149;28;20408;-80
2022/06/08 02:06:29;;;;;;;;;;;10.60;99.90;;;;;;5072604;28;19967;-80
2022/06/08 02:08:54;;;;;;;;;;;10.70;99.90;;;;;;5047855;28;19931;-80
2022/06/08 02:11:26;;;;;;;;;;;10.70;99.90;;;;;;5037416;28;20008;-80
2022/06/08 02:13:55;;;;;;;;;;;10.70;99.90;;;;;;5048516;28;19925;-80
2022/06/08 02:16:21;;;;;;;;;;;10.70;99.90;;;;;;5084591;28;20006;-80
2022/06/08 02:18:49;;;;;;;;;;;10.80;99.90;;;;;;5085333;28;19933;-80
2022/06/08 02:21:20;;;;;;;;;;;10.90;99.90;;;;;;5051608;28;19925;-80
2022/06/08 02:23:52;;;;;;;;;;;11.00;99.90;;;;;;5050105;28;19940;-80
2022/06/08 02:26:20;;;;;;;;;;;11.00;99.90;;;;;;5051086;28;19932;-80
2022/06/08 02:28:49;;;;;;;;;;;11.10;99.90;;;;;;5085065;28;19928;-80
2022/06/08 02:31:20;;;;;;;;;;;11.10;99.90;;;;;;5015413;28;19925;-80
2022/06/08 02:36:37;;;;;;;;;;;11.20;99.90;;;;;;5073764;28;20434;-80
2022/06/08 02:39:05;;;;;;;;;;;11.20;99.90;;;;;;5021824;28;19932;-80
2022/06/08 02:41:32;;;;;;;;;;;11.30;99.90;;;;;;5033051;28;19929;-80
2022/06/08 02:44:01;;;;;;;;;;;11.30;99.90;;;;;;5049774;28;20422;-80
2022/06/08 02:46:39;;;;;;;;;;;11.30;99.90;;;;;;5028765;28;19929;-80
2022/06/08 02:49:05;;;;;;;;;;;11.20;99.90;;;;;;5019838;28;19925;-80
2022/06/08 02:51:31;;;;;;;;;;;11.20;99.90;;;;;;5050013;28;19929;-81
2022/06/08 02:53:59;;;;;;;;;;;11.20;99.90;;;;;;5041463;28;19932;-80
2022/06/08 02:56:30;;;;;;;;;;;11.20;99.90;;;;;;5043366;28;19932;-80
2022/06/08 02:59:12;;;;;;;;;;;11.20;99.90;;;;;;5051164;28;19940;-80
2022/06/08 03:01:44;;;;;;;;;;;11.20;99.90;;;;;;5046462;28;20127;-80
2022/06/08 03:04:36;;;;;;;;;;;11.20;99.90;;;;;;5038160;28;19925;-80
2022/06/08 03:07:07;;;;;;;;;;;11.20;99.90;;;;;;5030117;28;19937;-80
2022/06/08 03:09:33;;;;;;;;;;;11.20;99.90;;;;;;5030799;28;19944;-80
2022/06/08 03:12:01;;;;;;;;;;;11.20;99.90;;;;;;5030975;28;19925;-80
2022/06/08 03:14:27;;;;;;;;;;;11.20;99.90;;;;;;5030792;28;20237;-80
2022/06/08 03:17:01;;;;;;;;;;;11.20;99.90;;;;;;5053592;28;19932;-81
2022/06/08 03:19:28;;;;;;;;;;;11.20;99.90;;;;;;5034231;28;20024;-80
2022/06/08 03:21:54;;;;;;;;;;;11.20;99.90;;;;;;5037938;28;19932;-80
2022/06/08 03:24:21;;;;;;;;;;;11.30;99.90;;;;;;5030248;28;19925;-80
2022/06/08 03:26:52;;;;;;;;;;;11.30;99.90;;;;;;5031681;28;20759;-80
2022/06/08 03:29:19;;;;;;;;;;;11.30;99.90;;;;;;5064241;28;19925;-80
2022/06/08 03:31:44;;;;;;;;;;;11.30;99.90;;;;;;5053704;28;19929;-81
2022/06/08 03:34:10;;;;;;;;;;;11.30;99.90;;;;;;5013928;28;19925;-80
2022/06/08 03:36:36;;;;;;;;;;;11.30;99.90;;;;;;5032544;28;19979;-80
2022/06/08 03:39:02;;;;;;;;;;;11.30;99.90;;;;;;5048493;28;19929;-80
2022/06/08 03:41:27;;;;;;;;;;;11.30;99.90;;;;;;5049634;28;19925;-80
2022/06/08 03:43:53;;;;;;;;;;;11.40;99.90;;;;;;5049457;28;19932;-80
2022/06/08 03:46:19;;;;;;;;;;;11.40;99.90;;;;;;5034101;28;19994;-80
2022/06/08 03:48:45;;;;;;;;;;;11.40;99.90;;;;;;5040832;28;19924;-80
2022/06/08 03:51:12;;;;;;;;;;;11.40;99.90;;;;;;5013859;28;19933;-80
2022/06/08 03:53:42;;;;;;;;;;;11.40;99.90;;;;;;5020599;28;19979;-80
2022/06/08 03:56:08;;;;;;;;;;;11.40;99.90;;;;;;5064038;28;19932;-80
2022/06/08 03:58:34;;;;;;;;;;;11.30;99.90;;;;;;5035482;28;19964;-80
2022/06/08 04:00:59;;;;;;;;;;;11.40;99.90;;;;;;5050087;28;19968;-80
2022/06/08 04:03:25;;;;;;;;;;;11.40;99.90;;;;;;5043158;28;19925;-80
2022/06/08 04:05:51;;;;;;;;;;;11.40;99.90;;;;;;5030450;28;19929;-80
2022/06/08 04:08:16;;;;;;;;;;;11.50;99.90;;;;;;5030582;28;20399;-80
2022/06/08 04:10:42;;;;;;;;;;;11.50;99.90;;;;;;5066778;28;19937;-80
2022/06/08 04:13:08;;;;;;;;;;;11.60;99.90;;;;;;5051261;28;20408;-80
2022/06/08 04:15:42;;;;;;;;;;;11.60;99.90;;;;;;5079778;28;19924;-80
2022/06/08 04:18:09;;;;;;;;;;;11.60;99.90;;;;;;5050463;28;19924;-80
2022/06/08 04:20:35;;;;;;;;;;;11.70;99.90;;;;;;5046346;28;20008;-80
2022/06/08 04:23:00;;;;;;;;;;;11.70;99.90;;;;;;5030525;28;20063;-80
2022/06/08 04:25:26;;;;;;;;;;;11.70;99.90;;;;;;5044511;28;19993;-80
2022/06/08 04:27:52;;;;;;;;;;;11.70;99.90;;;;;;5033557;28;19924;-80
2022/06/08 04:30:18;;;;;;;;;;;11.80;99.90;;;;;;5032951;28;19928;-80
2022/06/08 04:32:43;;;;;;;;;;;11.80;99.90;;;;;;5048248;28;19964;-80
2022/06/08 04:35:09;;;;;;;;;;;11.90;99.90;;;;;;5031094;28;19924;-80
2022/06/08 04:37:37;;;;;;;;;;;11.90;99.90;;;;;;5047981;28;19932;-80
2022/06/08 04:40:07;;;;;;;;;;;12.00;99.90;;;;;;5047952;28;19931;-80
2022/06/08 04:42:34;;;;;;;;;;;12.00;99.90;;;;;;5048609;28;19932;-80
2022/06/08 04:44:59;;;;;;;;;;;12.00;99.90;;;;;;5064398;28;20015;-80
2022/06/08 04:47:25;;;;;;;;;;;12.10;99.90;;;;;;5054351;28;20012;-80
2022/06/08 04:49:50;;;;;;;;;;;12.10;99.90;;;;;;5006083;28;19937;-80
2022/06/08 04:52:17;;;;;;;;;;;12.10;99.90;;;;;;5067573;28;20371;-80
2022/06/08 04:54:42;;;;;;;;;;;12.20;99.90;;;;;;5050380;28;19979;-80
2022/06/08 04:57:08;;;;;;;;;;;12.20;99.90;;;;;;5067905;28;19929;-80
2022/06/08 04:59:33;;;;;;;;;;;12.20;99.90;;;;;;5068730;28;20012;-80
2022/06/08 05:01:59;;;;;;;;;;;12.30;99.90;;;;;;5063996;28;20004;-80
2022/06/08 05:04:24;;;;;;;;;;;12.30;99.90;;;;;;5033244;28;19932;-80
2022/06/08 05:06:50;;;;;;;;;;;12.30;99.90;;;;;;5049008;28;19991;-80
2022/06/08 05:09:16;;;;;;;;;;;12.40;99.90;;;;;;5033757;28;19983;-80
2022/06/08 05:11:42;;;;;;;;;;;12.40;99.90;;;;;;5053355;28;19925;-80
2022/06/08 05:14:07;;;;;;;;;;;12.50;99.90;;;;;;5036572;28;19994;-80
2022/06/08 05:16:33;;;;;;;;;;;12.50;99.90;;;;;;5084278;28;19932;-80
2022/06/08 05:18:58;;;;;;;;;;;12.60;99.90;;;;;;5068963;28;20349;-80
2022/06/08 05:21:24;;;;;;;;;;;12.70;99.90;;;;;;5039104;28;19929;-80
2022/06/08 05:23:50;;;;;;;;;;;12.80;99.90;;;;;;5057935;28;20261;-80
2022/06/08 05:26:15;;;;;;;;;;;12.90;99.90;;;;;;5076217;28;19967;-80
2022/06/08 05:28:41;;;;;;;;;;;13.10;99.90;;;;;;5058106;28;19964;-80
2022/06/08 05:31:07;;;;;;;;;;;13.20;99.90;;;;;;5073514;28;19931;-80
2022/06/08 05:33:33;;;;;;;;;;;13.30;99.90;;;;;;5067087;28;19925;-80
2022/06/08 05:35:58;;;;;;;;;;;13.40;99.90;;;;;;5048166;28;19982;-80
2022/06/08 05:38:24;;;;;;;;;;;13.40;99.90;;;;;;5065531;28;20369;-79
2022/06/08 05:40:50;;;;;;;;;;;13.50;99.90;;;;;;5032156;28;19932;-79
2022/06/08 05:43:17;;;;;;;;;;;13.60;99.90;;;;;;5035109;28;20716;-81
2022/06/08 05:45:43;;;;;;;;;;;13.50;99.90;;;;;;5049536;28;19925;-80
2022/06/08 05:48:09;;;;;;;;;;;13.60;99.90;;;;;;5035879;28;20036;-80
2022/06/08 05:50:36;;;;;;;;;;;13.60;99.90;;;;;;5052473;28;19932;-81
2022/06/08 05:53:02;;;;;;;;;;;13.70;99.90;;;;;;5048698;28;20008;-80
2022/06/08 05:55:27;;;;;;;;;;;13.80;99.90;;;;;;5035060;28;20023;-80
2022/06/08 05:57:53;;;;;;;;;;;13.90;99.90;;;;;;5085697;28;19925;-80
2022/06/08 06:00:24;;;;;;;;;;;13.90;99.90;;;;;;5047753;28;19925;-81
2022/06/08 06:02:49;;;;;;;;;;;14.00;99.90;;;;;;5065315;28;19925;-82
2022/06/08 06:05:17;;;;;;;;;;;14.10;99.90;;;;;;5032412;28;19925;-83
2022/06/08 06:07:43;;;;;;;;;;;14.10;99.90;;;;;;5051986;28;19933;-82
2022/06/08 06:10:09;;;;;;;;;;;14.20;99.90;;;;;;5052847;28;19925;-83
2022/06/08 06:12:35;;;;;;;;;;;14.30;99.90;;;;;;5066016;28;19929;-80
2022/06/08 06:15:01;;;;;;;;;;;14.40;99.90;;;;;;5023136;28;19932;-82
2022/06/08 06:17:30;;;;;;;;;;;14.40;99.90;;;;;;5078787;28;19929;-80
2022/06/08 06:19:56;;;;;;;;;;;14.40;99.90;;;;;;5062836;28;19924;-79
2022/06/08 06:22:22;;;;;;;;;;;14.50;99.90;;;;;;5055007;28;19921;-80
2022/06/08 06:24:47;;;;;;;;;;;14.60;99.90;;;;;;5034284;28;19932;-83
2022/06/08 06:27:13;;;;;;;;;;;14.60;99.90;;;;;;5065189;28;20001;-79
2022/06/08 06:29:39;;;;;;;;;;;14.80;99.90;;;;;;5015353;28;19921;-80
2022/06/08 06:32:06;;;;;;;;;;;14.90;99.90;;;;;;5064778;28;19929;-80
2022/06/08 06:34:32;;;;;;;;;;;15.00;99.90;;;;;;5048600;28;19929;-79
2022/06/08 06:36:58;;;;;;;;;;;15.10;99.90;;;;;;5064256;28;20058;-80
2022/06/08 06:39:26;;;;;;;;;;;15.10;99.90;;;;;;5067574;28;20368;-80
2022/06/08 06:41:52;;;;;;;;;;;15.20;99.90;;;;;;5050124;28;19935;-79
2022/06/08 06:44:17;;;;;;;;;;;15.20;99.90;;;;;;5066972;28;19928;-80
2022/06/08 06:46:43;;;;;;;;;;;15.30;99.90;;;;;;5030910;28;19933;-79
2022/06/08 06:49:08;;;;;;;;;;;15.40;99.90;;;;;;5020643;28;19932;-80
2022/06/08 06:51:34;;;;;;;;;;;15.40;99.90;;;;;;5049506;28;19925;-79
2022/06/08 06:54:00;;;;;;;;;;;15.40;99.90;;;;;;5032529;28;19925;-79
2022/06/08 06:56:26;;;;;;;;;;;15.50;99.90;;;;;;5065301;28;19968;-79
2022/06/08 06:58:53;;;;;;;;;;;15.60;99.90;;;;;;5045890;28;19968;-83
2022/06/08 07:01:18;;;;;;;;;;;15.60;99.90;;;;;;5084610;28;19930;-79
2022/06/08 07:03:44;;;;;;;;;;;15.80;99.90;;;;;;5065892;28;19978;-79
2022/06/08 07:06:10;;;;;;;;;;;15.80;99.90;;;;;;5031007;28;20373;-79
2022/06/08 07:08:35;;;;;;;;;;;15.90;99.90;;;;;;5030933;28;20004;-79
2022/06/08 07:13:46;;;;;;;;;;;16.00;99.90;;;;;;5030835;28;19932;-79
2022/06/08 07:16:11;;;;;;;;;;;16.20;99.90;;;;;;5027359;28;19928;-79
2022/06/08 07:18:37;;;;;;;;;;;16.10;99.90;;;;;;5064280;28;20280;-79
2022/06/08 07:21:03;;;;;;;;;;;16.20;99.90;;;;;;5033589;28;19990;-78
2022/06/08 07:23:28;;;;;;;;;;;16.20;99.90;;;;;;5033078;28;19955;-77
2022/06/08 07:25:54;;;;;;;;;;;16.20;99.90;;;;;;5067029;28;19963;-77
2022/06/08 07:28:19;;;;;;;;;;;16.30;99.90;;;;;;5050148;28;19932;-78
2022/06/08 07:30:45;;;;;;;;;;;16.30;99.90;;;;;;5067035;28;19978;-78
2022/06/08 07:33:11;;;;;;;;;;;16.40;99.90;;;;;;5033221;28;19948;-79
2022/06/08 07:35:37;;;;;;;;;;;16.40;99.90;;;;;;5033946;28;20261;-79
2022/06/08 07:38:02;;;;;;;;;;;16.50;99.90;;;;;;5033229;28;19931;-78
2022/06/08 07:40:28;;;;;;;;;;;16.60;99.90;;;;;;5050742;28;19925;-78
2022/06/08 07:42:53;;;;;;;;;;;16.60;99.90;;;;;;5050530;28;20007;-78
2022/06/08 07:45:19;;;;;;;;;;;16.60;99.90;;;;;;5031531;28;19927;-78
2022/06/08 07:50:29;;;;;;;;;;;16.70;99.90;;;;;;5082451;28;19936;-80
2022/06/08 07:52:55;;;;;;;;;;;16.70;99.90;;;;;;5050437;28;19925;-78
2022/06/08 07:55:21;;;;;;;;;;;16.80;99.90;;;;;;5022305;28;20635;-78
2022/06/08 07:57:47;;;;;;;;;;;16.90;99.90;;;;;;5030769;28;20293;-78
2022/06/08 08:00:14;;;;;;;;;;;17.00;99.90;;;;;;5013587;28;20425;-79
2022/06/08 08:02:41;;;;;;;;;;;17.00;99.90;;;;;;5030497;28;20422;-78
2022/06/08 08:05:09;;;;;;;;;;;17.10;99.90;;;;;;5034210;28;19933;-78
2022/06/08 08:07:36;;;;;;;;;;;17.20;99.90;;;;;;5033651;28;20118;-78
2022/06/08 08:10:02;;;;;;;;;;;17.30;99.90;;;;;;5042488;28;19982;-79
2022/06/08 08:12:28;;;;;;;;;;;17.30;99.90;;;;;;5050495;28;20019;-78
2022/06/08 08:14:53;;;;;;;;;;;17.20;99.90;;;;;;5049331;28;20071;-78
2022/06/08 08:17:19;;;;;;;;;;;17.10;99.90;;;;;;5033577;28;19924;-78
2022/06/08 08:19:44;;;;;;;;;;;17.20;99.90;;;;;;5049160;28;19925;-78
2022/06/08 08:22:10;;;;;;;;;;;17.30;99.90;;;;;;5049774;28;19929;-79
2022/06/08 08:24:36;;;;;;;;;;;17.40;99.90;;;;;;5064132;28;19933;-78
2022/06/08 08:27:01;;;;;;;;;;;17.60;99.90;;;;;;5037317;28;19960;-79
2022/06/08 08:29:27;;;;;;;;;;;17.70;99.90;;;;;;5033976;28;19925;-79
2022/06/08 08:31:52;;;;;;;;;;;17.70;99.90;;;;;;5036487;28;20012;-78
2022/06/08 08:34:18;;;;;;;;;;;17.80;99.90;;;;;;5036812;28;20380;-79
2022/06/08 08:36:45;;;;;;;;;;;17.80;99.90;;;;;;5051311;28;19943;-77
2022/06/08 08:39:11;;;;;;;;;;;17.70;99.90;;;;;;5036530;28;20012;-78
2022/06/08 08:44:29;;;;;;;;;;;18.00;99.90;;;;;;5068563;28;20404;-80
2022/06/08 08:47:10;;;;;;;;;;;18.10;99.90;;;;;;5051811;28;20359;-78
2022/06/08 08:49:38;;;;;;;;;;;18.30;99.90;;;;;;5049913;28;20380;-80
2022/06/08 08:52:13;;;;;;;;;;;18.40;99.90;;;;;;5066623;28;19925;-81
2022/06/08 08:54:39;;;;;;;;;;;18.50;99.90;;;;;;5067799;28;19925;-80
2022/06/08 08:57:11;;;;;;;;;;;18.60;99.90;;;;;;5059760;28;19956;-80
2022/06/08 08:59:37;;;;;;;;;;;18.60;99.90;;;;;;5034086;28;20011;-80
2022/06/08 09:02:10;;;;;;;;;;;18.70;99.90;;;;;;5069877;28;19925;-80
2022/06/08 09:04:37;;;;;;;;;;;18.70;99.90;;;;;;5051682;28;19921;-80
2022/06/08 09:07:16;;;;;;;;;;;18.70;99.90;;;;;;5054629;28;19925;-80
2022/06/08 09:09:42;;;;;;;;;;;18.70;99.90;;;;;;5051680;28;19936;-80
2022/06/08 09:12:11;;;;;;;;;;;18.80;99.90;;;;;;5036413;28;19929;-80
2022/06/08 09:14:51;;;;;;;;;;;18.90;99.90;;;;;;5048796;28;19925;-81
2022/06/08 09:17:19;;;;;;;;;;;19.00;99.90;;;;;;5050920;28;20318;-80
2022/06/08 09:19:46;;;;;;;;;;;19.10;99.90;;;;;;5056139;28;19979;-80
2022/06/08 09:22:13;;;;;;;;;;;19.30;99.90;;;;;;5072846;28;19925;-80
2022/06/08 09:24:41;;;;;;;;;;;19.30;99.90;;;;;;5056258;28;20347;-80
2022/06/08 09:27:13;;;;;;;;;;;19.30;99.90;;;;;;5060597;28;20006;-80
2022/06/08 09:29:48;;;;;;;;;;;19.20;99.90;;;;;;5036380;28;20265;-80
2022/06/08 09:32:24;;;;;;;;;;;19.30;99.90;;;;;;5036371;28;19924;-80
2022/06/08 09:34:54;;;;;;;;;;;19.40;99.90;;;;;;5036776;28;20395;-80
2022/06/08 09:37:21;;;;;;;;;;;19.60;99.90;;;;;;5071622;28;20435;-80
2022/06/08 09:39:47;;;;;;;;;;;19.90;99.90;;;;;;5072537;28;19940;-80
2022/06/08 09:42:31;;;;;;;;;;;20.00;99.90;;;;;;5072292;28;20042;-81
2022/06/08 09:45:03;;;;;;;;;;;19.90;99.90;;;;;;5072436;28;19934;-81
2022/06/08 09:53:16;;;;;;;;;;;19.90;99.90;;;;;;5066181;28;19925;-80
2022/06/08 09:55:57;;;;;;;;;;;19.90;99.90;;;;;;5067182;28;19940;-80
2022/06/08 09:58:42;;;;;;;;;;;20.10;99.90;;;;;;5069899;28;19932;-80
2022/06/08 10:01:19;;;;;;;;;;;20.40;99.90;;;;;;5049080;28;19932;-80
2022/06/08 10:03:47;;;;;;;;;;;20.60;99.90;;;;;;5049351;28;19932;-80
2022/06/08 10:06:29;;;;;;;;;;;20.50;99.90;;;;;;5048800;28;19925;-80
2022/06/08 10:08:54;;;;;;;;;;;20.70;99.90;;;;;;5068331;28;19968;-80
2022/06/08 10:11:34;;;;;;;;;;;20.90;99.90;;;;;;5072037;28;19972;-81
2022/06/08 10:14:02;;;;;;;;;;;21.00;99.90;;;;;;5072324;28;19925;-81
2022/06/08 10:16:31;;;;;;;;;;;21.00;99.90;;;;;;5071584;28;20007;-80
2022/06/08 10:19:00;;;;;;;;;;;21.30;99.90;;;;;;5053143;28;19934;-81
2022/06/08 10:21:28;;;;;;;;;;;21.40;99.90;;;;;;5071329;28;20034;-81
2022/06/08 10:24:02;;;;;;;;;;;21.50;99.90;;;;;;5072026;28;19925;-79
2022/06/08 10:26:31;;;;;;;;;;;21.80;99.90;;;;;;5071432;28;19920;-79
2022/06/08 10:29:04;;;;;;;;;;;21.70;99.90;;;;;;5045925;28;19939;-80
2022/06/08 10:32:05;;;;;;;;;;;21.70;99.90;;;;;;5037320;28;19933;-80
2022/06/08 10:34:32;;;;;;;;;;;21.80;99.90;;;;;;5025929;28;20395;-79
2022/06/08 10:37:04;;;;;;;;;;;21.60;99.90;;;;;;5044594;28;19925;-79
2022/06/08 10:39:31;;;;;;;;;;;21.50;99.90;;;;;;5048528;28;20050;-79
2022/06/08 10:45:02;;;;;;;;;;;21.10;99.90;;;;;;5048537;28;20091;-81
2022/06/08 10:47:31;;;;;;;;;;;21.10;99.90;;;;;;5048286;28;20258;-80
2022/06/08 10:49:57;;;;;;;;;;;21.00;99.90;;;;;;5062840;28;19980;-81
2022/06/08 10:52:23;;;;;;;;;;;21.10;99.90;;;;;;5048089;28;19987;-81
2022/06/08 10:54:53;;;;;;;;;;;21.10;99.90;;;;;;5048035;28;19929;-80
2022/06/08 10:57:35;;;;;;;;;;;21.10;99.90;;;;;;5064484;28;19929;-79
2022/06/08 11:00:16;;;;;;;;;;;21.20;99.90;;;;;;5063965;28;20287;-80
2022/06/08 11:02:43;;;;;;;;;;;21.10;99.90;;;;;;5047470;28;19968;-79
2022/06/08 11:05:28;;;;;;;;;;;20.90;99.90;;;;;;5044668;28;20809;-80
2022/06/08 11:08:06;;;;;;;;;;;20.90;99.90;;;;;;5048679;28;19935;-79
2022/06/08 11:10:44;;;;;;;;;;;20.70;99.90;;;;;;5064548;28;19928;-79
2022/06/08 11:13:19;;;;;;;;;;;20.70;99.90;;;;;;5048250;28;19929;-80
2022/06/08 11:15:47;;;;;;;;;;;20.60;99.90;;;;;;5047901;28;20277;-79
2022/06/08 11:18:19;;;;;;;;;;;20.80;99.90;;;;;;5046915;28;20214;-79
2022/06/08 11:20:47;;;;;;;;;;;21.00;99.90;;;;;;5065062;28;19925;-79
2022/06/08 11:23:32;;;;;;;;;;;21.20;99.90;;;;;;5048198;28;19929;-81
2022/06/08 11:26:04;;;;;;;;;;;21.20;99.90;;;;;;5047686;28;19929;-80
2022/06/08 11:28:33;;;;;;;;;;;21.10;99.90;;;;;;5064653;28;19936;-80
2022/06/08 11:31:00;;;;;;;;;;;20.90;99.90;;;;;;5064855;28;20034;-80
2022/06/08 11:33:45;;;;;;;;;;;20.70;99.90;;;;;;5064260;28;20467;-80
2022/06/08 11:36:17;;;;;;;;;;;20.60;99.90;;;;;;5064454;28;20030;-80
2022/06/08 11:38:45;;;;;;;;;;;20.50;99.90;;;;;;5064648;28;19936;-79
2022/06/08 11:41:20;;;;;;;;;;;20.20;99.90;;;;;;5047563;28;19932;-80
2022/06/08 11:43:47;;;;;;;;;;;19.70;99.90;;;;;;5047879;28;20300;-79
2022/06/08 11:46:23;;;;;;;;;;;19.40;99.90;;;;;;5063993;28;19936;-82
2022/06/08 11:48:49;;;;;;;;;;;19.20;99.90;;;;;;5043243;28;20687;-81
2022/06/08 11:51:28;;;;;;;;;;;19.20;99.90;;;;;;5062055;28;20028;-83
2022/06/08 11:53:55;;;;;;;;;;;18.90;99.90;;;;;;5046744;28;19932;-83
2022/06/08 11:56:21;;;;;;;;;;;18.70;99.90;;;;;;5047058;28;20007;-83
2022/06/08 11:58:57;;;;;;;;;;;18.50;99.90;;;;;;5065910;28;19956;-83
2022/06/08 12:01:38;;;;;;;;;;;18.40;99.90;;;;;;5035410;28;19968;-82
2022/06/08 12:04:08;;;;;;;;;;;18.50;99.90;;;;;;5051733;28;20395;-83
2022/06/08 12:06:38;;;;;;;;;;;18.60;99.90;;;;;;5034904;28;19931;-80
2022/06/08 12:09:11;;;;;;;;;;;18.70;99.90;;;;;;5035429;28;20353;-80
2022/06/08 12:11:40;;;;;;;;;;;18.90;99.90;;;;;;5051333;28;19932;-80
2022/06/08 12:14:18;;;;;;;;;;;19.00;99.90;;;;;;5035293;28;20396;-81
2022/06/08 12:16:58;;;;;;;;;;;19.10;99.90;;;;;;5034286;28;19987;-80
2022/06/08 12:19:25;;;;;;;;;;;19.00;99.90;;;;;;5038417;28;19932;-82
2022/06/08 12:22:07;;;;;;;;;;;18.90;99.90;;;;;;5051724;28;19996;-81
2022/06/08 12:24:33;;;;;;;;;;;18.90;99.90;;;;;;5051628;28;19955;-82
2022/06/08 12:27:13;;;;;;;;;;;18.90;99.90;;;;;;5035495;28;20063;-78
2022/06/08 12:29:47;;;;;;;;;;;18.80;99.90;;;;;;5049243;28;20501;-79
2022/06/08 12:32:16;;;;;;;;;;;18.70;99.90;;;;;;5068270;28;19924;-80
2022/06/08 12:34:41;;;;;;;;;;;18.80;99.90;;;;;;5083441;28;19948;-80
2022/06/08 12:37:25;;;;;;;;;;;18.60;99.90;;;;;;5040822;28;20315;-84
2022/06/08 12:39:51;;;;;;;;;;;18.50;99.90;;;;;;5049139;28;19944;-86
2022/06/08 12:42:25;;;;;;;;;;;18.40;99.90;;;;;;5016233;28;19929;-87
2022/06/08 12:44:52;;;;;;;;;;;18.20;99.90;;;;;;5031877;28;20262;-84
2022/06/08 12:47:18;;;;;;;;;;;18.00;99.90;;;;;;5014997;28;20289;-84
2022/06/08 12:49:48;;;;;;;;;;;18.00;99.90;;;;;;5029139;28;19929;-81
2022/06/08 12:52:21;;;;;;;;;;;18.00;99.90;;;;;;5031596;28;20029;-80
2022/06/08 12:54:47;;;;;;;;;;;18.10;99.90;;;;;;5032277;28;19940;-80
2022/06/08 12:57:23;;;;;;;;;;;18.10;99.90;;;;;;5034231;28;19925;-80
2022/06/08 12:59:50;;;;;;;;;;;18.20;99.90;;;;;;5031588;28;19925;-80
2022/06/08 13:02:17;;;;;;;;;;;18.30;99.90;;;;;;5067178;28;20013;-84
2022/06/08 13:04:43;;;;;;;;;;;18.30;99.90;;;;;;5049474;28;19948;-81
2022/06/08 13:07:12;;;;;;;;;;;18.20;99.90;;;;;;5036076;28;20649;-80
2022/06/08 13:09:37;;;;;;;;;;;18.10;99.90;;;;;;5052044;28;19932;-84
2022/06/08 13:12:03;;;;;;;;;;;17.80;99.90;;;;;;5069466;28;19925;-83
2022/06/08 13:14:28;;;;;;;;;;;17.50;99.90;;;;;;5033557;28;20060;-83
2022/06/08 13:16:54;;;;;;;;;;;17.10;99.90;;;;;;5016556;28;19926;-82
2022/06/08 13:19:20;;;;;;;;;;;16.90;99.90;;;;;;5034268;28;19925;-81
2022/06/08 13:21:46;;;;;;;;;;;16.70;99.90;;;;;;5034148;28;19925;-81
2022/06/08 13:24:12;;;;;;;;;;;16.50;99.90;;;;;;5050425;28;19964;-81
2022/06/08 13:26:39;;;;;;;;;;;16.40;99.90;;;;;;5016975;28;19925;-80
2022/06/08 13:29:05;;;;;;;;;;;16.30;99.90;;;;;;5023011;28;20373;-80
2022/06/08 13:31:31;;;;;;;;;;;16.30;99.90;;;;;;5016425;28;19979;-79
2022/06/08 13:34:02;;;;;;;;;;;16.30;99.90;;;;;;5066233;28;19929;-78
2022/06/08 13:36:40;;;;;;;;;;;16.40;99.90;;;;;;5016470;28;20364;-78
2022/06/08 13:39:06;;;;;;;;;;;16.40;99.90;;;;;;5066114;28;19965;-78
2022/06/08 13:41:32;;;;;;;;;;;16.40;99.90;;;;;;5066187;28;19936;-78
2022/06/08 13:43:58;;;;;;;;;;;16.40;99.90;;;;;;5032728;28;19925;-78
2022/06/08 13:46:26;;;;;;;;;;;16.40;99.90;;;;;;5016199;28;19925;-78
2022/06/08 13:48:53;;;;;;;;;;;16.50;99.90;;;;;;5033149;28;20008;-78
2022/06/08 13:51:20;;;;;;;;;;;16.50;99.90;;;;;;5052475;28;20519;-77
2022/06/08 13:53:46;;;;;;;;;;;16.60;99.90;;;;;;5019050;28;19983;-78
2022/06/08 13:56:12;;;;;;;;;;;16.60;99.90;;;;;;5052279;28;19929;-78
2022/06/08 13:58:38;;;;;;;;;;;16.70;99.90;;;;;;5052514;28;19978;-78
2022/06/08 14:01:13;;;;;;;;;;;16.90;99.90;;;;;;5022825;28;19929;-78
2022/06/08 14:03:40;;;;;;;;;;;17.00;99.90;;;;;;5016207;28;19925;-78
2022/06/08 14:14:31;;;;;;;;;;;17.10;99.90;;;;;;5032272;28;19972;-78
2022/06/08 14:16:58;;;;;;;;;;;17.10;99.90;;;;;;5029267;28;20392;-78
2022/06/08 14:19:26;;;;;;;;;;;17.10;99.90;;;;;;5032496;28;20289;-78
2022/06/08 14:21:52;;;;;;;;;;;17.10;99.90;;;;;;5031818;28;19929;-79
2022/06/08 14:24:19;;;;;;;;;;;17.10;99.90;;;;;;5033113;28;19925;-79
2022/06/08 14:26:45;;;;;;;;;;;17.10;99.90;;;;;;5015496;28;19951;-85
2022/06/08 14:29:11;;;;;;;;;;;17.10;99.90;;;;;;5032269;28;20450;-78
2022/06/08 14:31:37;;;;;;;;;;;17.20;99.90;;;;;;5031396;28;19939;-79
2022/06/08 14:34:06;;;;;;;;;;;17.20;99.90;;;;;;5064902;28;19979;-79
2022/06/08 14:36:32;;;;;;;;;;;17.20;99.90;;;;;;5049090;28;19972;-78
2022/06/08 14:38:57;;;;;;;;;;;17.20;99.90;;;;;;4998503;28;19925;-78
2022/06/08 14:41:37;;;;;;;;;;;17.20;99.90;;;;;;5031812;28;20361;-78
2022/06/08 14:44:04;;;;;;;;;;;17.30;99.90;;;;;;5000350;28;20352;-78
2022/06/08 14:46:30;;;;;;;;;;;17.30;99.90;;;;;;5048024;28;19933;-79
2022/06/08 14:48:56;;;;;;;;;;;17.30;99.90;;;;;;5032480;28;19987;-78
2022/06/08 14:51:22;;;;;;;;;;;17.40;99.90;;;;;;5048345;28;19929;-78
2022/06/08 14:53:48;;;;;;;;;;;17.40;99.90;;;;;;5014754;28;19932;-78
2022/06/08 14:56:24;;;;;;;;;;;17.50;99.90;;;;;;5015096;28;19975;-78
2022/06/08 14:58:53;;;;;;;;;;;17.50;99.90;;;;;;5014749;28;20293;-79